createdAt,value
2023-01-29T00:01:18.099Z,1.90
2023-01-29T00:03:44.390Z,1.90
2023-01-29T00:06:10.809Z,1.91
2023-01-29T00:08:37.789Z,1.91
2023-01-29T00:11:04.750Z,1.90
2023-01-29T00:13:31.089Z,1.91
2023-01-29T00:15:58.015Z,1.93
2023-01-29T00:18:25.230Z,1.97
2023-01-29T00:20:51.581Z,1.98
2023-01-29T00:23:17.982Z,1.99
2023-01-29T00:25:44.524Z,2.01
2023-01-29T00:28:11.086Z,2.01
2023-01-29T00:30:37.481Z,2.02
2023-01-29T00:33:04.495Z,2.02
2023-01-29T00:35:31.315Z,2.03
2023-01-29T00:37:58.315Z,2.03
2023-01-29T00:40:25.540Z,2.02
2023-01-29T00:43:10.354Z,2.01
2023-01-29T00:45:36.832Z,2.00
2023-01-29T00:48:03.916Z,1.97
2023-01-29T00:50:30.607Z,1.98
2023-01-29T00:52:56.983Z,1.96
2023-01-29T00:55:23.340Z,1.96
2023-01-29T00:57:49.822Z,1.97
2023-01-29T01:00:17.430Z,1.98
2023-01-29T01:03:02.623Z,1.99
2023-01-29T01:05:29.371Z,1.98
2023-01-29T01:07:56.561Z,2.00
2023-01-29T01:10:28.251Z,2.01
2023-01-29T01:12:54.609Z,1.98
2023-01-29T01:15:21.576Z,1.98
2023-01-29T01:17:48.904Z,1.99
2023-01-29T01:20:15.919Z,1.99
2023-01-29T01:22:42.465Z,2.01
2023-01-29T01:25:09.025Z,2.01
2023-01-29T01:27:37.667Z,2.03
2023-01-29T01:30:04.710Z,2.03
2023-01-29T01:32:31.025Z,2.02
2023-01-29T01:34:57.420Z,2.02
2023-01-29T01:37:23.729Z,2.02
2023-01-29T01:39:50.458Z,2.03
2023-01-29T01:42:16.778Z,2.05
2023-01-29T01:45:10.243Z,2.07
2023-01-29T01:47:39.338Z,2.08
2023-01-29T01:50:09.366Z,2.10
2023-01-29T01:52:38.894Z,2.12
2023-01-29T01:55:05.806Z,2.13
2023-01-29T01:57:32.413Z,2.14
2023-01-29T02:00:10.019Z,2.15
2023-01-29T02:02:56.581Z,2.18
2023-01-29T02:05:41.444Z,2.22
2023-01-29T02:08:26.679Z,2.23
2023-01-29T02:10:53.059Z,2.24
2023-01-29T02:13:19.455Z,2.27
2023-01-29T02:15:48.732Z,2.28
2023-01-29T02:18:16.113Z,2.28
2023-01-29T02:20:43.992Z,2.30
2023-01-29T02:23:29.159Z,2.31
2023-01-29T02:26:07.729Z,2.32
2023-01-29T02:28:40.856Z,2.32
2023-01-29T02:31:19.241Z,2.34
2023-01-29T02:33:48.470Z,2.34
2023-01-29T02:36:33.603Z,2.34
2023-01-29T02:39:20.197Z,2.33
2023-01-29T02:41:52.684Z,2.35
2023-01-29T02:44:28.513Z,2.37
2023-01-29T02:47:02.061Z,2.39
2023-01-29T02:49:44.101Z,2.41
2023-01-29T02:52:19.415Z,2.44
2023-01-29T02:54:45.705Z,2.46
2023-01-29T02:57:20.678Z,2.48
2023-01-29T02:59:56.062Z,2.48
2023-01-29T03:02:28.067Z,2.47
2023-01-29T03:04:58.416Z,2.44
2023-01-29T03:07:46.827Z,2.40
2023-01-29T03:10:25.041Z,2.38
2023-01-29T03:12:55.523Z,2.38
2023-01-29T03:15:38.749Z,2.39
2023-01-29T03:18:08.827Z,2.38
2023-01-29T03:20:48.759Z,2.39
2023-01-29T03:23:27.058Z,2.40
2023-01-29T03:26:14.301Z,2.40
2023-01-29T03:29:00.933Z,2.42
2023-01-29T03:31:46.717Z,2.43
2023-01-29T03:34:16.318Z,2.43
2023-01-29T03:36:49.206Z,2.43
2023-01-29T03:39:16.007Z,2.44
2023-01-29T03:42:08.725Z,2.44
2023-01-29T03:44:48.941Z,2.43
2023-01-29T03:47:15.354Z,2.42
2023-01-29T03:49:57.709Z,2.43
2023-01-29T03:52:27.071Z,2.43
2023-01-29T03:55:01.216Z,2.44
2023-01-29T03:57:40.514Z,2.43
2023-01-29T04:00:13.013Z,2.44
2023-01-29T04:02:43.840Z,2.44
2023-01-29T04:05:14.901Z,2.44
2023-01-29T04:07:42.691Z,2.45
2023-01-29T04:10:15.514Z,2.44
2023-01-29T04:12:51.195Z,2.46
2023-01-29T04:15:18.679Z,2.45
2023-01-29T04:17:52.700Z,2.46
2023-01-29T04:20:19.981Z,2.47
2023-01-29T04:22:47.560Z,2.46
2023-01-29T04:25:15.922Z,2.47
2023-01-29T04:27:42.291Z,2.47
2023-01-29T04:30:27.364Z,2.45
2023-01-29T04:33:13.938Z,2.45
2023-01-29T04:35:53.197Z,2.46
2023-01-29T04:38:31.597Z,2.46
2023-01-29T04:41:21.189Z,2.47
2023-01-29T04:43:53.301Z,2.47
2023-01-29T04:46:21.257Z,2.47
2023-01-29T04:48:47.639Z,2.46
2023-01-29T04:51:24.873Z,2.49
2023-01-29T04:54:02.599Z,2.47
2023-01-29T04:56:34.384Z,2.46
2023-01-29T04:59:14.662Z,2.47
2023-01-29T05:01:41.413Z,2.45
2023-01-29T05:04:10.912Z,2.46
2023-01-29T05:06:37.936Z,2.47
2023-01-29T05:09:04.597Z,2.47
2023-01-29T05:11:32.807Z,2.49
2023-01-29T05:14:02.303Z,2.49
2023-01-29T05:16:42.097Z,2.47
2023-01-29T05:19:14.709Z,2.47
2023-01-29T05:21:43.325Z,2.48
2023-01-29T05:24:10.837Z,2.49
2023-01-29T05:26:55.785Z,2.47
2023-01-29T05:29:22.372Z,2.50
2023-01-29T05:31:48.772Z,2.49
2023-01-29T05:34:15.190Z,2.49
2023-01-29T05:36:41.506Z,2.46
2023-01-29T05:39:07.847Z,2.47
2023-01-29T05:41:34.211Z,2.49
2023-01-29T05:44:00.535Z,2.48
2023-01-29T05:46:26.871Z,2.50
2023-01-29T05:48:53.339Z,2.50
2023-01-29T05:51:19.697Z,2.51
2023-01-29T05:53:46.072Z,2.50
2023-01-29T05:56:12.389Z,2.50
2023-01-29T05:58:38.813Z,2.50
2023-01-29T06:01:09.123Z,2.50
2023-01-29T06:03:35.463Z,2.50
2023-01-29T06:06:02.313Z,2.51
2023-01-29T06:08:28.641Z,2.50
2023-01-29T06:10:54.979Z,2.51
2023-01-29T06:13:23.558Z,2.51
2023-01-29T06:15:50.012Z,2.52
2023-01-29T06:18:16.352Z,2.52
2023-01-29T06:20:42.663Z,2.54
2023-01-29T06:23:09.009Z,2.54
2023-01-29T06:25:35.335Z,2.55
2023-01-29T06:28:01.631Z,2.56
2023-01-29T06:30:28.436Z,2.55
2023-01-29T06:32:58.905Z,2.55
2023-01-29T06:35:25.556Z,2.55
2023-01-29T06:37:51.866Z,2.57
2023-01-29T06:40:18.622Z,2.56
2023-01-29T06:42:46.158Z,2.56
2023-01-29T06:45:12.593Z,2.58
2023-01-29T06:47:38.900Z,2.59
2023-01-29T06:50:05.366Z,2.58
2023-01-29T06:52:31.719Z,2.60
2023-01-29T06:54:58.081Z,2.60
2023-01-29T06:59:55.056Z,2.58
2023-01-29T07:02:21.458Z,2.56
2023-01-29T07:04:47.871Z,2.56
2023-01-29T07:07:14.189Z,2.53
2023-01-29T07:09:41.000Z,2.51
2023-01-29T07:12:07.410Z,2.51
2023-01-29T07:14:33.718Z,2.49
2023-01-29T07:17:00.047Z,2.49
2023-01-29T07:19:26.453Z,2.49
2023-01-29T07:21:52.764Z,2.47
2023-01-29T07:24:19.360Z,2.46
2023-01-29T07:26:45.798Z,2.43
2023-01-29T07:29:12.110Z,2.43
2023-01-29T07:31:38.641Z,2.38
2023-01-29T07:34:04.994Z,2.39
2023-01-29T07:36:31.303Z,2.37
2023-01-29T07:38:57.602Z,2.38
2023-01-29T07:41:23.906Z,2.37
2023-01-29T07:43:50.253Z,2.37
2023-01-29T07:46:16.707Z,2.36
2023-01-29T07:48:43.092Z,2.34
2023-01-29T07:51:09.437Z,2.34
2023-01-29T07:53:36.972Z,2.34
2023-01-29T07:56:03.391Z,2.32
2023-01-29T07:58:29.733Z,2.31
2023-01-29T08:00:56.056Z,2.30
2023-01-29T08:03:22.395Z,2.28
2023-01-29T08:05:48.835Z,2.27
2023-01-29T08:08:15.263Z,2.26
2023-01-29T08:10:41.842Z,2.25
2023-01-29T08:13:08.654Z,2.25
2023-01-29T08:18:21.577Z,2.25
2023-01-29T08:20:47.866Z,2.24
2023-01-29T08:23:15.251Z,2.26
2023-01-29T08:25:41.583Z,2.27
2023-01-29T08:28:08.726Z,2.28
2023-01-29T08:30:51.019Z,2.27
2023-01-29T08:33:29.720Z,2.27
2023-01-29T08:36:04.932Z,2.27
2023-01-29T08:38:31.254Z,2.28
2023-01-29T08:40:57.558Z,2.31
2023-01-29T08:43:23.920Z,2.30
2023-01-29T08:45:50.289Z,2.33
2023-01-29T08:48:16.709Z,2.34
2023-01-29T08:50:43.636Z,2.35
2023-01-29T08:53:10.378Z,2.37
2023-01-29T08:55:37.880Z,2.38
2023-01-29T08:58:05.390Z,2.40
2023-01-29T09:00:32.239Z,2.43
2023-01-29T09:02:59.736Z,2.43
2023-01-29T09:05:26.112Z,2.46
2023-01-29T09:07:54.187Z,2.46
2023-01-29T09:10:20.603Z,2.44
2023-01-29T09:12:46.943Z,2.43
2023-01-29T09:15:13.420Z,2.42
2023-01-29T09:17:40.955Z,2.43
2023-01-29T09:20:07.584Z,2.43
2023-01-29T09:22:34.014Z,2.42
2023-01-29T09:25:00.317Z,2.40
2023-01-29T09:27:26.745Z,2.38
2023-01-29T09:29:53.031Z,2.37
2023-01-29T09:32:37.764Z,2.35
2023-01-29T09:35:05.843Z,2.33
2023-01-29T09:37:32.212Z,2.30
2023-01-29T09:39:58.555Z,2.32
2023-01-29T09:42:28.613Z,2.31
2023-01-29T09:45:04.667Z,2.29
2023-01-29T09:47:33.176Z,2.30
2023-01-29T09:50:01.861Z,2.31
2023-01-29T09:52:28.156Z,2.37
2023-01-29T09:55:02.651Z,2.37
2023-01-29T09:57:33.370Z,2.38
2023-01-29T09:59:59.809Z,2.43
2023-01-29T10:02:38.341Z,2.45
2023-01-29T10:05:16.296Z,2.44
2023-01-29T10:07:42.831Z,2.43
2023-01-29T10:10:15.115Z,2.43
2023-01-29T10:12:47.578Z,2.42
2023-01-29T10:15:22.539Z,2.46
2023-01-29T10:18:02.535Z,2.45
2023-01-29T10:20:34.681Z,2.45
2023-01-29T10:23:01.270Z,2.42
2023-01-29T10:25:27.991Z,2.41
2023-01-29T10:27:57.070Z,2.44
2023-01-29T10:30:32.148Z,2.47
2023-01-29T10:33:01.471Z,2.48
2023-01-29T10:35:53.388Z,2.49
2023-01-29T10:38:28.208Z,2.48
2023-01-29T10:41:08.029Z,2.46
2023-01-29T10:43:46.347Z,2.47
2023-01-29T10:46:31.559Z,2.49
2023-01-29T10:49:21.257Z,2.51
2023-01-29T10:52:06.244Z,2.52
2023-01-29T10:54:51.361Z,2.52
2023-01-29T10:57:17.653Z,2.56
2023-01-29T10:59:43.931Z,2.56
2023-01-29T11:02:15.255Z,2.59
2023-01-29T11:04:41.596Z,2.60
2023-01-29T11:07:08.285Z,2.62
2023-01-29T11:09:37.746Z,2.64
2023-01-29T11:12:15.335Z,2.67
2023-01-29T11:14:46.319Z,2.70
2023-01-29T11:17:16.923Z,2.75
2023-01-29T11:19:44.584Z,2.79
2023-01-29T11:22:21.226Z,2.83
2023-01-29T11:25:06.691Z,2.84
2023-01-29T11:27:33.828Z,2.86
2023-01-29T11:30:00.301Z,2.91
2023-01-29T11:32:29.945Z,2.96
2023-01-29T11:34:56.273Z,3.01
2023-01-29T11:37:22.588Z,3.03
2023-01-29T11:39:50.526Z,3.05
2023-01-29T11:42:21.415Z,3.05
2023-01-29T11:44:47.770Z,3.07
2023-01-29T11:47:17.143Z,3.10
2023-01-29T11:49:48.665Z,3.13
2023-01-29T11:52:17.379Z,3.14
2023-01-29T11:54:47.296Z,3.17
2023-01-29T11:57:22.115Z,3.22
2023-01-29T11:59:50.564Z,3.30
2023-01-29T12:02:22.358Z,3.35
2023-01-29T12:04:49.352Z,3.36
2023-01-29T12:07:17.304Z,3.35
2023-01-29T12:09:56.613Z,3.29
2023-01-29T12:12:22.941Z,3.24
2023-01-29T12:15:02.075Z,3.24
2023-01-29T12:17:30.540Z,3.16
2023-01-29T12:20:01.316Z,3.14
2023-01-29T12:22:36.220Z,3.15
2023-01-29T12:25:05.457Z,3.17
2023-01-29T12:27:36.227Z,3.14
2023-01-29T12:30:22.351Z,3.18
2023-01-29T12:32:48.642Z,3.15
2023-01-29T12:35:27.987Z,3.14
2023-01-29T12:38:08.440Z,3.10
2023-01-29T12:40:43.863Z,3.10
2023-01-29T12:43:17.720Z,3.08
2023-01-29T12:45:47.569Z,3.05
2023-01-29T12:48:16.296Z,2.98
2023-01-29T12:50:42.675Z,2.95
2023-01-29T12:53:24.345Z,2.92
2023-01-29T12:55:55.376Z,2.92
2023-01-29T12:58:36.516Z,2.89
2023-01-29T13:01:14.052Z,2.86
2023-01-29T13:03:43.262Z,2.84
2023-01-29T13:06:11.952Z,2.83
2023-01-29T13:08:41.198Z,2.82
2023-01-29T13:11:33.769Z,2.80
2023-01-29T13:14:03.257Z,2.77
2023-01-29T13:16:33.400Z,2.76
2023-01-29T13:19:02.296Z,2.76
2023-01-29T13:21:38.977Z,2.74
2023-01-29T13:24:14.492Z,2.76
2023-01-29T13:26:44.267Z,2.75
2023-01-29T13:29:21.131Z,2.74
2023-01-29T13:31:48.443Z,2.74
2023-01-29T13:34:16.520Z,2.72
2023-01-29T13:36:44.851Z,2.71
2023-01-29T13:39:17.228Z,2.72
2023-01-29T13:41:43.627Z,2.69
2023-01-29T13:44:36.392Z,2.71
2023-01-29T13:47:05.163Z,2.75
2023-01-29T13:49:39.577Z,2.76
2023-01-29T13:52:17.199Z,2.76
2023-01-29T13:54:50.827Z,2.74
2023-01-29T13:57:55.823Z,2.75
2023-01-29T14:00:22.573Z,2.75
2023-01-29T14:03:11.396Z,2.73
2023-01-29T14:05:45.979Z,2.72
2023-01-29T14:08:12.279Z,2.69
2023-01-29T14:10:38.583Z,2.67
2023-01-29T14:13:04.876Z,2.64
2023-01-29T14:15:32.875Z,2.62
2023-01-29T14:18:02.115Z,2.62
2023-01-29T14:20:45.702Z,2.63
2023-01-29T14:23:18.668Z,2.62
2023-01-29T14:25:45.832Z,2.62
2023-01-29T14:28:16.565Z,2.63
2023-01-29T14:30:46.991Z,2.62
2023-01-29T14:33:36.512Z,2.62
2023-01-29T14:36:09.180Z,2.58
2023-01-29T14:38:35.874Z,2.60
2023-01-29T14:41:07.301Z,2.61
2023-01-29T14:43:33.639Z,2.63
2023-01-29T14:46:18.904Z,2.64
2023-01-29T14:48:51.896Z,2.64
2023-01-29T14:51:19.493Z,2.65
2023-01-29T14:53:53.042Z,2.67
2023-01-29T14:56:24.868Z,2.67
2023-01-29T14:58:54.782Z,2.68
2023-01-29T15:01:30.468Z,2.68
2023-01-29T15:04:17.977Z,2.74
2023-01-29T15:06:46.360Z,2.76
2023-01-29T15:09:14.761Z,2.77
2023-01-29T15:11:55.587Z,2.75
2023-01-29T15:14:28.965Z,2.75
2023-01-29T15:17:17.301Z,2.72
2023-01-29T15:19:45.320Z,2.75
2023-01-29T15:22:13.265Z,2.73
2023-01-29T15:24:40.820Z,2.73
2023-01-29T15:27:10.710Z,2.73
2023-01-29T15:29:38.021Z,2.72
2023-01-29T15:32:04.492Z,2.72
2023-01-29T15:34:30.857Z,2.73
2023-01-29T15:36:57.153Z,2.73
2023-01-29T15:39:24.567Z,2.72
2023-01-29T15:42:04.031Z,2.69
2023-01-29T15:44:30.339Z,2.73
2023-01-29T15:46:58.597Z,2.72
2023-01-29T15:49:29.094Z,2.71
2023-01-29T15:51:57.491Z,2.71
2023-01-29T15:54:24.186Z,2.74
2023-01-29T15:56:51.933Z,2.81
2023-01-29T15:59:19.710Z,2.86
2023-01-29T16:01:46.145Z,2.86
2023-01-29T16:04:31.729Z,2.89
2023-01-29T16:06:59.176Z,2.90
2023-01-29T16:09:26.572Z,2.91
2023-01-29T16:11:54.503Z,2.93
2023-01-29T16:14:23.210Z,2.94
2023-01-29T16:16:49.591Z,2.97
2023-01-29T16:19:29.520Z,2.98
2023-01-29T16:22:00.169Z,3.01
2023-01-29T16:24:27.151Z,3.02
2023-01-29T16:26:59.087Z,3.04
2023-01-29T16:29:29.852Z,3.08
2023-01-29T16:32:00.700Z,3.08
2023-01-29T16:34:37.839Z,3.10
2023-01-29T16:37:18.839Z,3.11
2023-01-29T16:39:47.434Z,3.07
2023-01-29T16:42:17.388Z,3.07
2023-01-29T16:44:49.771Z,3.05
2023-01-29T16:47:24.479Z,3.04
2023-01-29T16:49:52.599Z,3.04
2023-01-29T16:52:29.443Z,3.04
2023-01-29T16:54:59.940Z,3.05
2023-01-29T16:57:29.230Z,3.02
2023-01-29T16:59:58.312Z,3.01
2023-01-29T17:02:29.606Z,2.98
2023-01-29T17:04:58.404Z,2.99
2023-01-29T17:07:25.024Z,2.98
2023-01-29T17:09:54.151Z,2.97
2023-01-29T17:12:22.545Z,2.97
2023-01-29T17:14:56.336Z,2.94
2023-01-29T17:17:28.730Z,2.94
2023-01-29T17:19:55.041Z,2.91
2023-01-29T17:22:21.341Z,2.90
2023-01-29T17:24:51.354Z,2.91
2023-01-29T17:27:21.957Z,2.90
2023-01-29T17:29:48.880Z,2.90
2023-01-29T17:32:18.875Z,2.88
2023-01-29T17:34:46.616Z,2.86
2023-01-29T17:37:14.207Z,2.89
2023-01-29T17:39:41.089Z,2.90
2023-01-29T17:42:10.568Z,2.79
2023-01-29T17:44:36.892Z,2.84
2023-01-29T17:47:05.367Z,2.83
2023-01-29T17:49:35.813Z,2.81
2023-01-29T17:52:02.136Z,2.82
2023-01-29T17:54:28.469Z,2.83
2023-01-29T17:56:54.899Z,2.79
2023-01-29T17:59:22.553Z,2.78
2023-01-29T18:01:49.923Z,2.77
2023-01-29T18:04:16.469Z,2.74
2023-01-29T18:06:43.583Z,2.71
2023-01-29T18:09:14.041Z,2.70
2023-01-29T18:11:40.973Z,2.71
2023-01-29T18:14:13.905Z,2.67
2023-01-29T18:16:41.373Z,2.65
2023-01-29T18:19:22.075Z,2.58
2023-01-29T18:21:48.744Z,2.59
2023-01-29T18:24:15.745Z,2.59
2023-01-29T18:26:42.315Z,2.56
2023-01-29T18:29:08.810Z,2.58
2023-01-29T18:31:35.653Z,2.52
2023-01-29T18:34:01.998Z,2.57
2023-01-29T18:36:28.398Z,2.56
2023-01-29T18:38:54.934Z,2.54
2023-01-29T18:41:21.353Z,2.51
2023-01-29T18:43:47.728Z,2.54
2023-01-29T18:46:14.199Z,2.55
2023-01-29T18:48:42.659Z,2.58
2023-01-29T18:51:09.249Z,2.56
2023-01-29T18:53:35.582Z,2.59
2023-01-29T18:56:04.200Z,2.62
2023-01-29T18:58:36.209Z,2.65
2023-01-29T19:01:07.017Z,2.66
2023-01-29T19:03:33.407Z,2.64
2023-01-29T19:06:03.261Z,2.66
2023-01-29T19:08:30.090Z,2.67
2023-01-29T19:10:56.485Z,2.67
2023-01-29T19:13:22.826Z,2.58
2023-01-29T19:15:49.172Z,2.68
2023-01-29T19:18:15.593Z,2.72
2023-01-29T19:20:42.217Z,2.74
2023-01-29T19:23:08.839Z,2.65
2023-01-29T19:25:39.109Z,2.53
2023-01-29T19:28:06.260Z,2.69
2023-01-29T19:30:32.765Z,2.70
2023-01-29T19:32:59.116Z,2.71
2023-01-29T19:35:25.627Z,2.72
2023-01-29T19:37:51.933Z,2.72
2023-01-29T19:40:18.729Z,2.39
2023-01-29T19:42:45.038Z,2.68
2023-01-29T19:45:11.463Z,2.69
2023-01-29T19:47:38.762Z,2.47
2023-01-29T19:50:05.282Z,2.54
2023-01-29T19:52:51.171Z,2.45
2023-01-29T19:55:21.402Z,2.62
2023-01-29T19:57:47.931Z,2.62
2023-01-29T20:00:17.321Z,2.67
2023-01-29T20:02:43.692Z,2.74
2023-01-29T20:05:12.017Z,2.75
2023-01-29T20:07:39.927Z,2.51
2023-01-29T20:10:08.885Z,2.55
2023-01-29T20:12:35.415Z,2.59
2023-01-29T20:15:01.735Z,2.59
2023-01-29T20:17:28.070Z,2.61
2023-01-29T20:19:54.819Z,2.64
2023-01-29T20:22:21.306Z,2.64
2023-01-29T20:24:47.634Z,2.58
2023-01-29T20:27:14.164Z,2.71
2023-01-29T20:29:40.720Z,2.58
2023-01-29T20:32:08.684Z,2.58
2023-01-29T20:34:35.192Z,2.75
2023-01-29T20:37:01.716Z,2.39
2023-01-29T20:39:28.053Z,2.67
2023-01-29T20:41:55.162Z,2.58
2023-01-29T20:44:21.469Z,2.66
2023-01-29T20:46:47.808Z,2.49
2023-01-29T20:49:14.348Z,2.58
2023-01-29T20:51:40.659Z,2.43
2023-01-29T20:54:08.071Z,2.58
2023-01-29T20:56:37.083Z,2.69
2023-01-29T20:59:10.792Z,2.51
2023-01-29T21:01:37.097Z,2.72
2023-01-29T21:04:03.516Z,2.84
2023-01-29T21:06:29.874Z,2.41
2023-01-29T21:08:56.184Z,2.65
2023-01-29T21:11:22.694Z,2.65
2023-01-29T21:13:49.071Z,2.70
2023-01-29T21:16:15.442Z,2.71
2023-01-29T21:18:41.764Z,2.67
2023-01-29T21:21:08.122Z,2.67
2023-01-29T21:23:34.430Z,2.66
2023-01-29T21:26:04.378Z,2.75
2023-01-29T21:28:31.044Z,2.78
2023-01-29T21:31:04.249Z,2.81
2023-01-29T21:33:30.723Z,2.84
2023-01-29T21:35:57.899Z,2.84
2023-01-29T21:38:24.213Z,2.85
2023-01-29T21:40:50.509Z,2.84
2023-01-29T21:43:16.853Z,2.93
2023-01-29T21:45:43.353Z,2.95
2023-01-29T21:48:10.481Z,2.92
2023-01-29T21:50:37.268Z,3.01
2023-01-29T21:53:03.745Z,2.97
2023-01-29T21:55:30.147Z,2.99
2023-01-29T21:57:56.576Z,3.02
2023-01-29T22:00:22.979Z,3.04
2023-01-29T22:02:50.099Z,3.06
2023-01-29T22:05:19.634Z,3.04
2023-01-29T22:07:46.998Z,2.99
2023-01-29T22:10:13.487Z,3.11
2023-01-29T22:12:40.037Z,3.14
2023-01-29T22:15:07.168Z,3.15
2023-01-29T22:17:33.970Z,3.16
2023-01-29T22:20:00.303Z,3.16
2023-01-29T22:22:26.772Z,3.18
2023-01-29T22:24:54.887Z,3.11
2023-01-29T22:27:21.231Z,3.16
2023-01-29T22:29:47.546Z,3.20
2023-01-29T22:32:13.852Z,3.21
2023-01-29T22:34:40.215Z,3.20
2023-01-29T22:37:06.527Z,3.18
2023-01-29T22:39:32.857Z,3.18
2023-01-29T22:41:59.187Z,3.21
2023-01-29T22:44:25.542Z,3.07
2023-01-29T22:46:51.855Z,3.18
2023-01-29T22:49:18.509Z,3.10
2023-01-29T22:51:44.808Z,3.19
2023-01-29T22:54:11.131Z,3.23
2023-01-29T22:56:37.447Z,3.21
2023-01-29T22:59:03.830Z,3.23
2023-01-29T23:01:31.119Z,3.24
2023-01-29T23:03:57.732Z,3.26
2023-01-29T23:06:24.108Z,3.25
2023-01-29T23:08:50.937Z,3.27
2023-01-29T23:11:20.245Z,3.27
2023-01-29T23:13:51.973Z,3.30
2023-01-29T23:16:19.104Z,3.30
2023-01-29T23:18:48.633Z,3.31
2023-01-29T23:21:15.019Z,3.29
2023-01-29T23:23:43.051Z,3.31
2023-01-29T23:26:29.759Z,3.32
2023-01-29T23:28:56.224Z,3.32
2023-01-29T23:31:22.898Z,3.27
2023-01-29T23:33:49.953Z,3.30
2023-01-29T23:36:16.676Z,3.34
2023-01-29T23:38:43.374Z,3.35
2023-01-29T23:41:09.691Z,3.35
2023-01-29T23:43:35.977Z,3.33
2023-01-29T23:46:02.286Z,3.35
2023-01-29T23:48:28.687Z,3.38
2023-01-29T23:50:54.996Z,3.38
2023-01-29T23:53:21.457Z,3.38
2023-01-29T23:55:57.896Z,3.37
2023-01-29T23:58:24.321Z,3.42
